createdAt,value
2018-06-01T00:01:40.251Z,18.60
2018-06-01T00:04:07.698Z,18.60
2018-06-01T00:06:35.156Z,18.60
2018-06-01T00:09:03.375Z,18.80
2018-06-01T00:11:30.822Z,18.80
2018-06-01T00:13:58.278Z,18.70
2018-06-01T00:16:25.745Z,18.80
2018-06-01T00:18:55.010Z,18.90
2018-06-01T00:21:22.478Z,19.00
2018-06-01T00:23:49.931Z,19.10
2018-06-01T00:26:17.378Z,19.10
2018-06-01T00:28:45.590Z,19.10
2018-06-01T00:31:13.820Z,19.10
2018-06-01T00:33:41.274Z,19.10
2018-06-01T00:36:08.726Z,19.10
2018-06-01T00:38:36.173Z,19.10
2018-06-01T00:41:03.630Z,19.10
2018-06-01T00:43:31.843Z,19.10
2018-06-01T00:45:59.290Z,19.10
2018-06-01T00:48:26.737Z,19.10
2018-06-01T00:50:54.190Z,19.20
2018-06-01T00:53:21.631Z,19.10
2018-06-01T00:55:49.077Z,19.10
2018-06-01T00:58:16.530Z,19.00
2018-06-01T01:00:43.978Z,18.90
2018-06-01T01:03:11.438Z,18.90
2018-06-01T01:05:38.885Z,18.90
2018-06-01T01:08:06.339Z,18.80
2018-06-01T01:10:33.782Z,18.70
2018-06-01T01:13:01.247Z,18.70
2018-06-01T01:15:28.696Z,18.80
2018-06-01T01:17:56.902Z,19.00
2018-06-01T01:20:24.353Z,19.00
2018-06-01T01:22:51.794Z,19.00
2018-06-01T01:25:19.242Z,19.10
2018-06-01T01:27:47.453Z,18.90
2018-06-01T01:30:15.665Z,18.80
2018-06-01T01:32:43.105Z,18.80
2018-06-01T01:35:10.555Z,18.70
2018-06-01T01:37:38.757Z,18.50
2018-06-01T01:40:06.209Z,18.50
2018-06-01T01:42:34.418Z,18.40
2018-06-01T01:45:01.865Z,18.40
2018-06-01T01:47:29.311Z,18.50
2018-06-01T01:49:56.775Z,18.50
2018-06-01T01:52:24.222Z,18.40
2018-06-01T01:54:51.661Z,18.20
2018-06-01T01:57:19.107Z,18.30
2018-06-01T01:59:47.320Z,18.10
2018-06-01T02:02:14.761Z,18.10
2018-06-01T02:04:42.206Z,18.10
2018-06-01T02:07:09.650Z,18.00
2018-06-01T02:09:37.871Z,18.10
2018-06-01T02:12:05.306Z,18.10
2018-06-01T02:14:32.747Z,18.10
2018-06-01T02:17:00.198Z,18.10
2018-06-01T02:19:28.400Z,18.10
2018-06-01T02:21:56.614Z,18.00
2018-06-01T02:24:24.064Z,18.00
2018-06-01T02:26:51.514Z,17.90
2018-06-01T02:29:18.955Z,17.80
2018-06-01T02:31:46.401Z,17.80
2018-06-01T02:34:13.845Z,17.70
2018-06-01T02:36:41.287Z,17.60
2018-06-01T02:39:09.499Z,17.40
2018-06-01T02:41:36.955Z,17.40
2018-06-01T02:44:04.396Z,17.30
2018-06-01T02:46:31.834Z,17.30
2018-06-01T02:48:59.284Z,17.30
2018-06-01T02:51:26.736Z,17.30
2018-06-01T02:53:54.174Z,17.30
2018-06-01T02:56:21.619Z,17.30
2018-06-01T02:58:49.057Z,17.30
2018-06-01T03:01:16.499Z,17.30
2018-06-01T03:03:43.949Z,17.30
2018-06-01T03:06:11.398Z,17.30
2018-06-01T03:08:38.830Z,17.30
2018-06-01T03:11:06.290Z,17.30
2018-06-01T03:13:34.526Z,17.30
2018-06-01T03:16:01.974Z,17.30
2018-06-01T03:18:30.171Z,17.30
2018-06-01T03:20:58.380Z,17.30
2018-06-01T03:23:26.594Z,17.30
2018-06-01T03:25:54.035Z,17.20
2018-06-01T03:28:21.478Z,17.20
2018-06-01T03:30:48.926Z,17.10
2018-06-01T03:33:16.367Z,17.10
2018-06-01T03:35:43.818Z,17.00
2018-06-01T03:38:11.257Z,17.00
2018-06-01T03:40:39.472Z,17.20
2018-06-01T03:43:07.673Z,17.30
2018-06-01T03:45:35.881Z,17.30
2018-06-01T03:48:04.086Z,17.30
2018-06-01T03:50:31.532Z,17.30
2018-06-01T03:52:58.966Z,17.40
2018-06-01T03:55:27.194Z,17.40
2018-06-01T03:57:54.642Z,17.40
2018-06-01T04:00:22.182Z,17.50
2018-06-01T04:02:50.503Z,17.50
2018-06-01T04:05:18.941Z,17.60
2018-06-01T04:07:47.029Z,17.70
2018-06-01T04:10:14.597Z,17.60
2018-06-01T04:13:05.394Z,17.60
2018-06-01T04:15:33.715Z,17.60
2018-06-01T04:18:01.794Z,17.60
2018-06-01T04:20:29.364Z,17.70
2018-06-01T04:22:56.807Z,17.60
2018-06-01T04:25:24.255Z,17.50
2018-06-01T04:27:51.714Z,17.50
2018-06-01T04:30:19.158Z,17.60
2018-06-01T04:32:49.187Z,17.60
2018-06-01T04:35:17.401Z,17.60
2018-06-01T04:37:44.856Z,17.60
2018-06-01T04:40:12.330Z,17.70
2018-06-01T04:42:39.782Z,17.80
2018-06-01T04:45:07.991Z,18.10
2018-06-01T04:47:35.454Z,18.10
2018-06-01T04:50:05.829Z,18.20
2018-06-01T04:52:33.289Z,18.30
2018-06-01T04:55:00.721Z,18.40
2018-06-01T04:57:28.170Z,18.50
2018-06-01T04:59:56.891Z,18.50
2018-06-01T05:02:24.334Z,18.60
2018-06-01T05:04:52.778Z,18.60
2018-06-01T05:07:20.217Z,18.70
2018-06-01T05:09:49.331Z,18.80
2018-06-01T05:12:16.770Z,18.80
2018-06-01T05:14:44.492Z,18.80
2018-06-01T05:17:11.923Z,18.90
2018-06-01T05:19:39.366Z,18.80
2018-06-01T05:22:07.574Z,18.90
2018-06-01T05:24:37.665Z,19.00
2018-06-01T05:27:06.123Z,19.10
2018-06-01T05:29:34.590Z,19.10
2018-06-01T05:32:02.032Z,19.10
2018-06-01T05:34:29.474Z,19.20
2018-06-01T05:36:56.931Z,19.30
2018-06-01T05:39:24.386Z,19.30
2018-06-01T05:41:51.838Z,19.30
2018-06-01T05:44:19.295Z,19.40
2018-06-01T05:46:46.750Z,19.50
2018-06-01T05:49:14.190Z,19.50
2018-06-01T05:51:42.401Z,19.40
2018-06-01T05:54:11.046Z,19.50
2018-06-01T05:56:38.486Z,19.50
2018-06-01T05:59:06.954Z,19.40
2018-06-01T06:01:34.394Z,19.30
2018-06-01T06:04:01.838Z,19.20
2018-06-01T06:06:29.682Z,19.10
2018-06-01T06:08:58.121Z,19.20
2018-06-01T06:11:25.563Z,19.30
2018-06-01T06:13:53.776Z,19.30
2018-06-01T06:16:21.525Z,19.20
2018-06-01T06:18:49.689Z,19.20
2018-06-01T06:21:19.979Z,19.40
2018-06-01T06:23:48.878Z,19.80
2018-06-01T06:26:17.419Z,19.70
2018-06-01T06:28:44.871Z,20.00
2018-06-01T06:31:12.328Z,20.40
2018-06-01T06:33:39.786Z,20.50
2018-06-01T06:36:08.556Z,20.80
2018-06-01T06:38:35.994Z,20.80
2018-06-01T06:41:03.813Z,21.00
2018-06-01T06:43:32.442Z,21.60
2018-06-01T06:46:01.107Z,23.00
2018-06-01T06:48:29.314Z,24.10
2018-06-01T06:50:57.514Z,24.60
2018-06-01T06:53:24.966Z,24.60
2018-06-01T06:55:52.407Z,25.40
2018-06-01T06:58:19.859Z,25.40
2018-06-01T07:00:48.076Z,23.40
2018-06-01T07:03:15.517Z,23.30
2018-06-01T07:05:44.163Z,22.70
2018-06-01T07:08:12.332Z,22.70
2018-06-01T07:10:39.829Z,22.90
2018-06-01T07:13:07.263Z,22.90
2018-06-01T07:15:35.319Z,22.60
2018-06-01T07:18:02.830Z,22.60
2018-06-01T07:20:31.299Z,25.50
2018-06-01T07:25:53.309Z,27.20
2018-06-01T07:28:21.448Z,27.20
2018-06-01T07:30:48.890Z,27.20
2018-06-01T07:33:16.346Z,27.70
2018-06-01T07:35:43.791Z,28.20
2018-06-01T07:40:19.386Z,27.40
2018-06-01T07:42:46.901Z,27.20
2018-06-01T07:45:14.409Z,27.50
2018-06-01T07:47:41.901Z,28.10
2018-06-01T07:50:09.373Z,29.10
2018-06-01T07:52:36.883Z,29.20
2018-06-01T07:55:04.377Z,29.20
2018-06-01T07:57:31.837Z,29.10
2018-06-01T07:59:59.381Z,29.90
2018-06-01T08:02:26.838Z,30.00
2018-06-01T08:04:55.121Z,31.10
2018-06-01T08:07:23.344Z,31.20
2018-06-01T08:09:50.906Z,31.20
2018-06-01T08:12:18.363Z,30.70
2018-06-01T08:14:45.842Z,31.60
2018-06-01T08:17:13.312Z,31.30
2018-06-01T08:19:40.773Z,30.10
2018-06-01T08:22:09.030Z,30.70
2018-06-01T08:24:37.293Z,31.60
2018-06-01T08:27:04.936Z,31.60
2018-06-01T08:29:32.570Z,31.30
2018-06-01T08:32:00.113Z,31.80
2018-06-01T08:34:27.577Z,32.10
2018-06-01T08:36:55.987Z,30.50
2018-06-01T08:39:23.995Z,30.60
2018-06-01T08:41:51.516Z,30.90
2018-06-01T08:44:19.777Z,31.80
2018-06-01T08:46:48.236Z,31.80
2018-06-01T08:49:16.570Z,31.10
2018-06-01T08:51:44.263Z,31.10
2018-06-01T08:54:12.726Z,30.20
2018-06-01T08:56:40.221Z,30.20
2018-06-01T08:59:07.811Z,29.30
2018-06-01T09:01:35.234Z,27.80
2018-06-01T09:04:02.709Z,26.40
2018-06-01T09:06:30.430Z,25.90
2018-06-01T09:08:57.952Z,25.80
2018-06-01T09:11:26.365Z,26.00
2018-06-01T09:13:53.922Z,26.00
2018-06-01T09:16:21.510Z,26.30
2018-06-01T09:18:49.059Z,27.50
2018-06-01T09:21:16.684Z,28.10
2018-06-01T09:23:44.287Z,27.40
2018-06-01T09:26:13.316Z,26.00
2018-06-01T09:28:40.924Z,26.00
2018-06-01T09:31:09.450Z,24.80
2018-06-01T09:33:37.058Z,24.70
2018-06-01T09:36:04.604Z,24.50
2018-06-01T09:38:32.188Z,24.30
2018-06-01T09:40:59.689Z,23.90
2018-06-01T09:43:27.305Z,23.80
2018-06-01T09:45:54.757Z,24.00
2018-06-01T09:48:22.212Z,24.00
2018-06-01T09:50:49.760Z,23.70
2018-06-01T09:53:17.301Z,23.70
2018-06-01T09:55:44.865Z,23.50
2018-06-01T09:58:12.345Z,23.90
2018-06-01T10:03:37.434Z,24.00
2018-06-01T10:06:06.418Z,25.00
2018-06-01T10:08:33.915Z,25.00
2018-06-01T10:11:07.179Z,25.10
2018-06-01T10:13:34.637Z,24.80
2018-06-01T10:16:02.100Z,24.70
2018-06-01T10:18:30.325Z,26.20
2018-06-01T10:20:57.792Z,26.10
2018-06-01T10:23:25.335Z,28.00
2018-06-01T10:25:53.920Z,28.50
2018-06-01T10:28:21.425Z,28.50
2018-06-01T10:30:48.885Z,27.20
2018-06-01T10:33:16.381Z,26.70
2018-06-01T10:35:44.648Z,28.70
2018-06-01T10:38:12.109Z,28.70
2018-06-01T10:40:40.341Z,28.10
2018-06-01T10:43:08.560Z,27.10
2018-06-01T10:45:36.021Z,27.00
2018-06-01T10:48:03.477Z,27.00
2018-06-01T10:50:31.053Z,26.80
2018-06-01T10:53:01.539Z,26.60
2018-06-01T10:55:29.878Z,27.50
2018-06-01T10:57:57.341Z,27.40
2018-06-01T11:00:25.877Z,29.40
2018-06-01T11:02:53.425Z,29.30
2018-06-01T11:05:21.794Z,29.20
2018-06-01T11:07:50.090Z,29.20
2018-06-01T11:10:17.658Z,30.00
2018-06-01T11:12:45.257Z,30.60
2018-06-01T11:15:12.973Z,30.50
2018-06-01T11:17:40.549Z,31.30
2018-06-01T11:20:08.018Z,29.70
2018-06-01T11:22:35.497Z,28.10
2018-06-01T11:25:02.965Z,26.90
2018-06-01T11:27:30.425Z,26.40
2018-06-01T11:29:58.649Z,26.30
2018-06-01T11:32:26.113Z,26.30
2018-06-01T11:34:53.610Z,27.20
2018-06-01T11:37:21.097Z,28.80
2018-06-01T11:39:48.585Z,29.10
2018-06-01T11:45:08.477Z,27.20
2018-06-01T11:47:35.994Z,27.20
2018-06-01T11:50:03.466Z,26.90
2018-06-01T11:52:30.946Z,26.40
2018-06-01T11:54:58.438Z,26.00
2018-06-01T11:57:25.959Z,25.70
2018-06-01T11:59:53.414Z,25.40
2018-06-01T12:02:20.881Z,25.10
2018-06-01T12:04:48.350Z,25.10
2018-06-01T12:07:15.858Z,25.70
2018-06-01T12:09:43.348Z,26.40
2018-06-01T12:12:12.449Z,27.40
2018-06-01T12:14:39.913Z,27.20
2018-06-01T12:17:07.764Z,26.60
2018-06-01T12:19:35.266Z,26.80
2018-06-01T12:22:03.513Z,27.40
2018-06-01T12:24:31.781Z,26.70
2018-06-01T12:26:59.247Z,26.70
2018-06-01T12:29:26.892Z,27.00
2018-06-01T12:31:54.417Z,27.20
2018-06-01T12:34:21.918Z,28.00
2018-06-01T12:36:49.377Z,27.40
2018-06-01T12:39:17.633Z,26.40
2018-06-01T12:41:46.106Z,26.20
2018-06-01T12:44:14.339Z,26.90
2018-06-01T12:46:41.801Z,26.80
2018-06-01T12:49:09.285Z,27.10
2018-06-01T12:51:36.757Z,26.30
2018-06-01T12:54:04.248Z,26.20
2018-06-01T12:56:33.732Z,25.80
2018-06-01T12:59:02.028Z,26.60
2018-06-01T13:01:29.533Z,26.60
2018-06-01T13:03:57.035Z,26.50
2018-06-01T13:06:24.703Z,26.90
2018-06-01T13:08:52.285Z,27.00
2018-06-01T13:11:20.472Z,26.30
2018-06-01T13:13:48.708Z,25.90
2018-06-01T13:16:16.940Z,25.60
2018-06-01T13:18:45.301Z,25.60
2018-06-01T13:21:12.906Z,25.60
2018-06-01T13:23:40.515Z,26.30
2018-06-01T13:26:08.000Z,26.70
2018-06-01T13:28:35.758Z,26.50
2018-06-01T13:31:03.302Z,26.40
2018-06-01T13:33:31.536Z,26.30
2018-06-01T13:35:59.117Z,26.30
2018-06-01T13:38:26.578Z,26.30
2018-06-01T13:40:54.170Z,26.30
2018-06-01T13:43:21.661Z,26.70
2018-06-01T13:45:49.120Z,26.30
2018-06-01T13:48:17.809Z,25.80
2018-06-01T13:50:45.473Z,25.80
2018-06-01T13:53:13.022Z,26.00
2018-06-01T13:55:40.517Z,26.50
2018-06-01T13:58:08.017Z,26.50
2018-06-01T14:00:35.551Z,26.40
2018-06-01T14:03:03.184Z,26.30
2018-06-01T14:05:31.830Z,26.40
2018-06-01T14:07:59.473Z,26.40
2018-06-01T14:10:27.093Z,26.20
2018-06-01T14:12:55.480Z,26.40
2018-06-01T14:15:23.037Z,26.30
2018-06-01T14:17:50.501Z,26.70
2018-06-01T14:20:17.993Z,26.50
2018-06-01T14:22:45.485Z,26.80
2018-06-01T14:25:13.962Z,27.10
2018-06-01T14:27:42.234Z,26.90
2018-06-01T14:30:09.725Z,26.80
2018-06-01T14:32:37.231Z,26.50
2018-06-01T14:35:04.717Z,26.90
2018-06-01T14:37:32.172Z,27.20
2018-06-01T14:40:00.393Z,27.20
2018-06-01T14:42:27.903Z,27.20
2018-06-01T14:44:55.501Z,26.80
2018-06-01T14:47:25.091Z,26.40
2018-06-01T14:49:52.730Z,26.10
2018-06-01T14:52:20.221Z,25.80
2018-06-01T14:54:47.717Z,25.70
2018-06-01T14:57:15.173Z,25.80
2018-06-01T14:59:42.698Z,26.00
2018-06-01T15:02:10.311Z,25.90
2018-06-01T15:04:37.819Z,26.10
2018-06-01T15:07:17.762Z,26.30
2018-06-01T15:09:49.145Z,26.20
2018-06-01T15:12:18.769Z,26.00
2018-06-01T15:14:58.494Z,25.70
2018-06-01T15:17:26.153Z,25.40
2018-06-01T15:19:55.547Z,25.40
2018-06-01T15:22:24.585Z,25.20
2018-06-01T15:24:58.548Z,25.20
2018-06-01T15:30:16.955Z,25.40
2018-06-01T15:32:59.725Z,25.40
2018-06-01T15:35:42.107Z,25.40
2018-06-01T15:38:09.583Z,25.40
2018-06-01T15:40:37.055Z,25.30
2018-06-01T15:43:04.539Z,25.60
2018-06-01T15:45:32.019Z,25.60
2018-06-01T15:48:00.274Z,25.60
2018-06-01T15:50:27.784Z,25.60
2018-06-01T15:52:55.242Z,25.40
2018-06-01T15:58:14.099Z,25.50
2018-06-01T16:00:41.563Z,25.50
2018-06-01T16:03:09.039Z,25.70
2018-06-01T16:05:36.611Z,25.50
2018-06-01T16:08:04.107Z,25.30
2018-06-01T16:10:32.346Z,25.10
2018-06-01T16:12:59.819Z,25.10
2018-06-01T16:15:27.293Z,25.20
2018-06-01T16:17:54.823Z,25.30
2018-06-01T16:20:22.491Z,25.50
2018-06-01T16:22:51.015Z,25.70
2018-06-01T16:25:18.495Z,25.70
2018-06-01T16:30:50.993Z,25.40
2018-06-01T16:36:37.014Z,24.80
2018-06-01T16:39:22.398Z,24.80
2018-06-01T16:41:54.073Z,25.00
2018-06-01T16:44:35.686Z,24.90
2018-06-01T16:47:11.962Z,24.90
2018-06-01T16:49:42.569Z,24.90
2018-06-01T16:52:14.369Z,25.00
2018-06-01T16:54:46.469Z,24.90
2018-06-01T16:57:17.037Z,24.90
2018-06-01T16:59:48.406Z,25.00
2018-06-01T17:02:23.246Z,25.00
2018-06-01T17:04:58.427Z,25.00
2018-06-01T17:07:26.059Z,25.00
2018-06-01T17:10:08.464Z,25.00
2018-06-01T17:12:44.814Z,25.00
2018-06-01T17:15:28.106Z,25.00
2018-06-01T17:18:08.597Z,24.80
2018-06-01T17:20:50.489Z,24.70
2018-06-01T17:23:31.700Z,24.60
2018-06-01T17:26:02.923Z,24.70
2018-06-01T17:28:39.764Z,24.60
2018-06-01T17:31:21.379Z,24.60
2018-06-01T17:33:55.609Z,24.40
2018-06-01T17:36:35.707Z,24.30
2018-06-01T17:39:06.181Z,24.30
2018-06-01T17:48:09.083Z,24.00
2018-06-01T17:50:36.707Z,23.70
2018-06-01T17:53:04.126Z,23.70
2018-06-01T17:55:31.608Z,23.60
2018-06-01T17:57:59.091Z,23.50
2018-06-01T18:00:26.584Z,23.30
2018-06-01T18:02:54.084Z,23.20
2018-06-01T18:05:22.685Z,23.10
2018-06-01T18:07:55.096Z,23.10
2018-06-01T18:10:25.075Z,23.00
2018-06-01T18:12:52.779Z,23.00
2018-06-01T18:15:20.557Z,23.00
2018-06-01T18:17:48.065Z,22.90
2018-06-01T18:20:15.738Z,22.80
2018-06-01T18:22:44.866Z,22.70
2018-06-01T18:25:13.293Z,22.50
2018-06-01T18:27:43.716Z,22.50
2018-06-01T18:30:12.536Z,22.40
2018-06-01T18:32:41.263Z,22.40
2018-06-01T18:35:08.865Z,22.40
2018-06-01T18:37:37.921Z,22.30
2018-06-01T18:40:06.164Z,22.10
2018-06-01T18:42:36.034Z,22.10
2018-06-01T18:45:05.685Z,21.90
2018-06-01T18:47:33.423Z,21.70
2018-06-01T18:50:02.418Z,21.60
2018-06-01T18:52:30.137Z,21.50
2018-06-01T18:55:00.381Z,21.10
2018-06-01T18:57:28.717Z,21.00
2018-06-01T18:59:59.027Z,20.80
2018-06-01T19:02:27.753Z,20.80
2018-06-01T19:04:57.469Z,20.80
2018-06-01T19:07:26.002Z,20.70
2018-06-01T19:09:54.093Z,20.80
2018-06-01T19:12:22.378Z,21.00
2018-06-01T19:14:51.033Z,20.90
2018-06-01T19:17:18.854Z,20.90
2018-06-01T19:19:47.923Z,20.90
2018-06-01T19:22:15.469Z,20.90
2018-06-01T19:24:43.020Z,20.90
2018-06-01T19:27:10.500Z,20.70
2018-06-01T19:29:37.969Z,20.50
2018-06-01T19:32:06.255Z,20.20
2018-06-01T19:34:34.517Z,20.10
2018-06-01T19:37:02.073Z,20.10
2018-06-01T19:39:30.481Z,20.20
2018-06-01T19:41:57.998Z,20.20
2018-06-01T19:44:25.729Z,20.10
2018-06-01T19:46:53.201Z,20.00
2018-06-01T19:49:20.707Z,19.90
2018-06-01T19:51:48.947Z,19.90
2018-06-01T19:54:18.234Z,19.90
2018-06-01T19:56:46.489Z,19.60
2018-06-01T19:59:14.760Z,19.50
2018-06-01T20:01:42.281Z,19.50
2018-06-01T20:04:09.754Z,19.40
2018-06-01T20:06:37.985Z,19.20
2018-06-01T20:09:05.446Z,19.20
2018-06-01T20:11:32.987Z,19.00
2018-06-01T20:14:01.730Z,18.90
2018-06-01T20:16:29.322Z,18.90
2018-06-01T20:18:57.595Z,18.80
2018-06-01T20:21:26.062Z,18.80
2018-06-01T20:23:53.538Z,18.80
2018-06-01T20:26:21.014Z,18.80
2018-06-01T20:28:48.482Z,18.70
2018-06-01T20:31:16.705Z,18.40
2018-06-01T20:33:44.184Z,18.40
2018-06-01T20:36:12.451Z,18.20
2018-06-01T20:38:40.695Z,18.10
2018-06-01T20:41:08.951Z,18.00
2018-06-01T20:43:36.427Z,17.90
2018-06-01T20:46:03.990Z,17.90
2018-06-01T20:48:31.473Z,17.90
2018-06-01T20:50:58.942Z,17.90
2018-06-01T20:53:27.298Z,17.90
2018-06-01T20:55:56.390Z,17.90
2018-06-01T20:58:23.972Z,17.90
2018-06-01T21:00:51.443Z,17.80
2018-06-01T21:03:19.837Z,17.70
2018-06-01T21:05:47.307Z,17.60
2018-06-01T21:08:14.801Z,17.60
2018-06-01T21:10:42.270Z,17.60
2018-06-01T21:13:09.765Z,17.50
2018-06-01T21:15:37.657Z,17.60
2018-06-01T21:18:05.932Z,17.50
2018-06-01T21:20:33.512Z,17.50
2018-06-01T21:23:01.002Z,17.50
2018-06-01T21:25:28.501Z,17.40
2018-06-01T21:27:55.981Z,17.30
2018-06-01T21:30:23.469Z,17.30
2018-06-01T21:32:51.011Z,17.10
2018-06-01T21:35:18.505Z,17.00
2018-06-01T21:37:46.737Z,16.80
2018-06-01T21:40:14.969Z,16.70
2018-06-01T21:42:42.434Z,16.70
2018-06-01T21:45:10.245Z,16.80
2018-06-01T21:47:37.768Z,16.70
2018-06-01T21:50:05.258Z,16.80
2018-06-01T21:52:32.758Z,16.90
2018-06-01T21:55:56.841Z,16.90
2018-06-01T21:58:25.065Z,16.70
2018-06-01T22:00:52.531Z,16.70
2018-06-01T22:03:20.772Z,16.80
2018-06-01T22:05:48.233Z,16.80
2018-06-01T22:08:15.759Z,16.90
2018-06-01T22:10:44.253Z,16.80
2018-06-01T22:13:11.721Z,16.70
2018-06-01T22:15:39.226Z,16.70
2018-06-01T22:18:06.714Z,16.60
2018-06-01T22:20:34.202Z,16.50
2018-06-01T22:23:01.662Z,16.40
2018-06-01T22:25:29.121Z,16.20
2018-06-01T22:27:57.349Z,16.10
2018-06-01T22:30:25.465Z,16.10
2018-06-01T22:32:52.929Z,16.00
2018-06-01T22:35:20.386Z,15.80
2018-06-01T22:37:47.853Z,15.80
2018-06-01T22:40:15.317Z,15.80
2018-06-01T22:42:42.791Z,15.80
2018-06-01T22:45:10.247Z,15.90
2018-06-01T22:47:37.769Z,15.90
2018-06-01T22:50:05.261Z,15.90
2018-06-01T22:52:32.738Z,15.90
2018-06-01T22:55:00.194Z,16.00
2018-06-01T22:57:27.654Z,15.90
2018-06-01T22:59:55.189Z,15.90
2018-06-01T23:02:22.661Z,15.90
2018-06-01T23:04:50.150Z,15.90
2018-06-01T23:07:17.621Z,15.80
2018-06-01T23:09:45.077Z,15.70
2018-06-01T23:12:12.537Z,15.70
2018-06-01T23:14:40.786Z,15.80
2018-06-01T23:17:08.277Z,15.80
2018-06-01T23:19:35.777Z,15.80
2018-06-01T23:22:03.246Z,15.70
2018-06-01T23:24:36.458Z,15.80
2018-06-01T23:27:03.965Z,15.70
2018-06-01T23:29:31.437Z,15.60
2018-06-01T23:31:58.898Z,15.60
2018-06-01T23:34:27.154Z,15.60
2018-06-01T23:36:54.653Z,15.60
2018-06-01T23:39:22.128Z,15.50
2018-06-01T23:41:50.379Z,15.40
2018-06-01T23:44:17.897Z,15.40
2018-06-01T23:46:45.360Z,15.30
2018-06-01T23:49:13.611Z,15.10
2018-06-01T23:51:41.849Z,15.00
2018-06-01T23:54:09.311Z,14.90
2018-06-01T23:56:36.806Z,14.90
2018-06-01T23:59:04.271Z,14.80
